Terminal Aerodrome Forecast
Issued by NWS

Current Version | Previous Version | Text Only | Print | Product List | Glossary Off
Versions: 1 2 3 4 5 6 7 8 9 10 11 12 13 14 15 16 17 18 19 20 21 22 23 24 25 26 27 28 29 30

593
FTUS41 KRNK 041126
TAFLWB
TAF
KLWB 041126Z 0412/0512 00000KT P6SM OVC110
     FM041800 14005KT P6SM OVC070
     FM050000 12004KT 3SM -RA BR OVC015
     FM050300 VRB03KT 3SM -RA BR OVC007
     FM050900 00000KT 5SM BR OVC007=

USA.gov is the U.S. government's official web portal to all federal, state and local government web resources and services.